KGWO/GWO METAR and TAF weather

Enter ICAO airport designator
Station Type Date Time Source
KGWO METAR 2020/07/10 21:53 UTC NOAA

KGWO 102153Z AUTO 32003KT 10SM SCT033 32/25 A2998 RMK AO2 SLP150 T03170250


Station Type Date Time Source
KGWO Decoded METAR 2020/07/10 21:53 UTC NOAA

GREENWOOD-LEFLORE AIRPORT, MS, United States (KGWO) 33-30N 090-05W 44M
Jul 10, 2020 - 05:53 PM EDT / 2020.07.10 2153 UTC
Wind: from the NW (320 degrees) at 3 MPH (3 KT):0
Visibility: 10 mile(s):0
Sky conditions: partly cloudy
Temperature: 89.1 F (31.7 C)
Heat index: 101.5 F (38.6 C):1
Dew Point: 77.0 F (25.0 C)
Relative Humidity: 67%
Pressure (altimeter): 29.98 in. Hg (1015 hPa)
ob: KGWO 102153Z AUTO 32003KT 10SM SCT033 32/25 A2998 RMK AO2 SLP150 T03170250
cycle: 22

Station Type Date Time Source
KGWO TAF 2020/07/10 18:54 UTC NOAA

TAF KGWO 101750Z 1018/1118 31010KT P6SM FEW025 SCT050
FM110000 VRB05KT P6SM FEW250
FM110900 00000KT 5SM BR FEW025 FEW250
FM111600 33010KT P6SM SCT100 BKN250

Example: see airport list